Time;durP1;ratioP1;P1;durP2;ratioP2;P2;SDS_P1;SDS_P2;PMS_P1;PMS_P2;Temp;Humidity;BMP_temperature;BMP_pressure;BME280_temperature;BME280_humidity;BME280_pressure;Samples;Min_cycle;Max_cycle;Signal;HPM_P1;HPM_P2
2023/02/26 00:00:59;;;;;;;4.32;2.40;;;20.30;29.70;;;;;;5050842;28;20098;-53
2023/02/26 00:03:25;;;;;;;5.03;2.85;;;20.30;29.70;;;;;;5054125;28;20028;-54
2023/02/26 00:05:51;;;;;;;5.90;2.70;;;20.30;29.70;;;;;;5049193;28;20104;-53
2023/02/26 00:08:17;;;;;;;5.25;2.67;;;20.30;29.60;;;;;;5047286;28;20459;-53
2023/02/26 00:10:43;;;;;;;3.92;2.38;;;20.30;29.60;;;;;;5050951;28;20035;-53
2023/02/26 00:13:10;;;;;;;3.83;2.40;;;20.30;29.60;;;;;;5049393;28;20045;-51
2023/02/26 00:15:36;;;;;;;3.28;2.13;;;20.30;30.00;;;;;;5051955;28;20455;-52
2023/02/26 00:18:06;;;;;;;5.75;2.53;;;20.30;29.60;;;;;;5053236;28;20344;-52
2023/02/26 00:20:35;;;;;;;4.70;2.20;;;20.30;29.60;;;;;;5048655;28;20441;-53
2023/02/26 00:23:01;;;;;;;5.07;1.92;;;20.30;29.50;;;;;;5047818;28;20033;-51
2023/02/26 00:25:26;;;;;;;3.85;2.00;;;20.30;29.50;;;;;;5048744;28;20055;-54
2023/02/26 00:27:52;;;;;;;3.08;1.90;;;20.20;29.50;;;;;;5045530;28;20087;-54
2023/02/26 00:30:19;;;;;;;5.60;2.33;;;20.20;29.50;;;;;;5054145;28;20357;-53
2023/02/26 00:32:45;;;;;;;4.60;2.17;;;20.20;29.50;;;;;;5047808;28;20033;-55
2023/02/26 00:35:14;;;;;;;4.28;2.10;;;20.20;29.50;;;;;;5050499;28;20049;-55
2023/02/26 00:37:54;;;;;;;4.80;2.00;;;20.20;29.50;;;;;;5049761;28;20029;-54
2023/02/26 00:40:35;;;;;;;3.83;2.22;;;20.20;29.50;;;;;;5049387;28;20037;-51
2023/02/26 00:43:03;;;;;;;4.07;2.13;;;20.20;29.50;;;;;;5047094;28;20025;-53
2023/02/26 00:45:29;;;;;;;5.63;2.00;;;20.20;29.40;;;;;;5053192;28;20033;-53
2023/02/26 00:48:05;;;;;;;3.53;2.00;;;20.20;29.40;;;;;;5044908;28;20098;-52
2023/02/26 00:50:31;;;;;;;4.75;2.22;;;20.20;29.40;;;;;;5050915;28;20452;-53
2023/02/26 00:53:00;;;;;;;3.58;1.85;;;20.20;29.40;;;;;;5048699;28;20038;-53
2023/02/26 00:55:26;;;;;;;3.53;1.95;;;20.20;29.40;;;;;;5051766;28;20032;-56
2023/02/26 00:57:52;;;;;;;3.50;2.00;;;20.20;29.40;;;;;;5047498;28;20453;-55
2023/02/26 01:00:19;;;;;;;3.33;1.67;;;20.10;29.30;;;;;;5051464;28;20067;-52
2023/02/26 01:02:46;;;;;;;3.55;1.90;;;20.10;29.30;;;;;;5045371;28;20087;-51
2023/02/26 01:05:13;;;;;;;2.45;1.60;;;20.10;29.30;;;;;;5046250;28;20029;-51
2023/02/26 01:07:56;;;;;;;2.63;1.50;;;20.10;29.30;;;;;;5049305;28;20049;-54
2023/02/26 01:10:23;;;;;;;3.78;1.70;;;20.10;29.30;;;;;;5052916;28;20049;-52
2023/02/26 01:12:49;;;;;;;3.25;1.63;;;20.10;29.30;;;;;;5036622;28;20107;-53
2023/02/26 01:15:16;;;;;;;2.72;1.55;;;20.10;29.30;;;;;;5043823;28;20409;-52
2023/02/26 01:17:53;;;;;;;2.88;1.40;;;20.10;29.30;;;;;;5046301;28;20607;-54
2023/02/26 01:20:23;;;;;;;2.58;1.45;;;20.10;29.30;;;;;;5047180;28;20037;-53
2023/02/26 01:23:07;;;;;;;4.13;1.85;;;20.10;29.30;;;;;;5045381;28;20033;-52
2023/02/26 01:25:41;;;;;;;3.67;1.77;;;20.10;29.30;;;;;;5044965;28;20030;-54
2023/02/26 01:28:07;;;;;;;2.67;1.40;;;20.10;29.30;;;;;;5051447;28;20440;-53
2023/02/26 01:30:33;;;;;;;4.05;1.58;;;20.10;29.30;;;;;;5048296;28;20037;-52
2023/02/26 01:33:13;;;;;;;2.92;1.40;;;20.10;29.40;;;;;;5049155;28;20051;-52
2023/02/26 01:35:44;;;;;;;3.08;1.35;;;20.10;29.30;;;;;;5049364;28;20029;-53
2023/02/26 01:38:31;;;;;;;3.97;1.48;;;20.10;29.20;;;;;;5045296;28;20491;-50
2023/02/26 01:41:17;;;;;;;3.28;1.40;;;20.00;29.20;;;;;;5047556;28;20025;-54
2023/02/26 01:44:05;;;;;;;2.17;1.15;;;20.00;29.10;;;;;;5040664;28;20029;-52
2023/02/26 01:46:46;;;;;;;2.22;1.40;;;20.00;29.10;;;;;;5044952;28;20055;-54
2023/02/26 01:49:14;;;;;;;2.50;1.17;;;20.00;29.10;;;;;;5050240;28;20036;-54
2023/02/26 01:51:46;;;;;;;3.08;1.38;;;20.00;29.10;;;;;;5048354;28;20090;-53
2023/02/26 01:54:14;;;;;;;2.95;1.40;;;20.00;29.10;;;;;;5048748;28;20048;-53
2023/02/26 01:56:41;;;;;;;1.60;1.10;;;20.00;29.10;;;;;;5047140;28;20028;-52
2023/02/26 01:59:10;;;;;;;2.78;1.15;;;20.00;29.10;;;;;;5045955;28;20063;-49
2023/02/26 02:01:38;;;;;;;2.92;1.45;;;20.00;29.10;;;;;;5048682;28;20021;-54
2023/02/26 02:04:07;;;;;;;3.40;1.25;;;19.90;29.10;;;;;;5044524;28;20021;-53
2023/02/26 02:06:33;;;;;;;2.17;1.10;;;19.90;29.10;;;;;;5048545;28;20029;-56
2023/02/26 02:09:03;;;;;;;1.80;1.20;;;19.90;29.10;;;;;;5045009;28;20024;-52
2023/02/26 02:11:29;;;;;;;3.38;1.15;;;19.90;29.10;;;;;;5045339;28;20446;-53
2023/02/26 02:14:16;;;;;;;2.33;1.15;;;19.90;29.00;;;;;;5049549;28;20415;-55
2023/02/26 02:16:51;;;;;;;4.25;1.30;;;19.90;29.00;;;;;;5049584;28;20517;-53
2023/02/26 02:19:54;;;;;;;2.67;1.17;;;19.90;29.00;;;;;;5047070;28;20463;-52
2023/02/26 02:22:58;;;;;;;2.35;1.23;;;19.90;29.00;;;;;;5047516;28;20301;-52
2023/02/26 02:26:01;;;;;;;2.15;1.30;;;19.90;29.00;;;;;;5044625;28;20082;-56
2023/02/26 02:28:39;;;;;;;2.65;1.25;;;19.90;29.10;;;;;;5044593;28;20116;-54
2023/02/26 02:31:05;;;;;;;2.83;1.35;;;19.90;29.10;;;;;;5047777;28;20025;-55
2023/02/26 02:33:48;;;;;;;2.58;1.30;;;19.90;29.20;;;;;;5044766;28;20464;-52
2023/02/26 02:36:30;;;;;;;1.77;1.00;;;19.90;29.20;;;;;;5049772;28;20043;-56
2023/02/26 02:39:31;;;;;;;3.15;1.25;;;19.90;29.20;;;;;;5044591;28;20032;-53
2023/02/26 02:42:10;;;;;;;2.10;1.02;;;19.90;29.10;;;;;;5040889;28;20029;-55
2023/02/26 02:44:44;;;;;;;2.45;1.00;;;19.80;29.10;;;;;;5044482;28;20052;-51
2023/02/26 02:47:11;;;;;;;3.65;1.00;;;19.80;29.00;;;;;;5045226;28;20120;-51
2023/02/26 02:50:01;;;;;;;2.50;1.05;;;19.80;29.00;;;;;;5044674;28;20025;-52
2023/02/26 02:52:46;;;;;;;2.42;1.23;;;19.80;29.00;;;;;;5043354;28;20041;-53
2023/02/26 02:55:21;;;;;;;3.10;1.20;;;19.80;29.00;;;;;;5048128;28;20444;-52
2023/02/26 02:58:12;;;;;;;3.60;1.23;;;19.80;29.00;;;;;;5043644;28;20021;-51
2023/02/26 03:00:43;;;;;;;2.80;1.20;;;19.80;29.00;;;;;;5048258;28;20039;-51
2023/02/26 03:03:15;;;;;;;1.58;0.95;;;19.80;29.00;;;;;;5044896;28;20048;-52
2023/02/26 03:05:41;;;;;;;1.55;0.90;;;19.80;29.00;;;;;;5048574;28;20135;-51
2023/02/26 03:08:12;;;;;;;2.65;1.23;;;19.80;28.90;;;;;;5043747;28;20017;-52
2023/02/26 03:10:38;;;;;;;2.47;0.88;;;19.80;28.90;;;;;;5044965;28;20033;-53
2023/02/26 03:13:04;;;;;;;3.42;1.13;;;19.80;28.90;;;;;;5044213;28;20513;-55
2023/02/26 03:15:50;;;;;;;2.58;1.10;;;19.80;28.90;;;;;;5046465;28;20567;-53
2023/02/26 03:18:41;;;;;;;2.45;0.80;;;19.80;28.90;;;;;;5044980;28;20017;-54
2023/02/26 03:21:23;;;;;;;1.90;0.85;;;19.70;28.80;;;;;;5049285;28;20444;-54
2023/02/26 03:23:59;;;;;;;2.70;1.05;;;19.80;28.80;;;;;;5045254;28;20079;-48
2023/02/26 03:26:40;;;;;;;2.85;1.20;;;19.70;28.80;;;;;;5043020;28;20045;-52
2023/02/26 03:29:41;;;;;;;1.77;0.95;;;19.70;28.80;;;;;;5045272;28;20021;-50
2023/02/26 03:32:14;;;;;;;2.63;1.20;;;19.70;28.80;;;;;;5047269;28;20437;-52
2023/02/26 03:34:44;;;;;;;1.98;0.90;;;19.70;28.70;;;;;;5046910;28;20033;-53
2023/02/26 03:37:31;;;;;;;2.47;1.00;;;19.70;28.80;;;;;;5049233;28;20039;-50
2023/02/26 03:40:01;;;;;;;2.10;0.80;;;19.70;28.70;;;;;;5048034;28;20089;-55
2023/02/26 03:42:33;;;;;;;2.42;0.80;;;19.70;28.70;;;;;;5046070;28;20034;-49
2023/02/26 03:45:09;;;;;;;2.58;0.68;;;19.70;28.70;;;;;;5042213;28;20029;-51
2023/02/26 03:47:38;;;;;;;2.03;0.95;;;19.70;28.70;;;;;;5047161;28;20494;-50
2023/02/26 03:50:24;;;;;;;2.30;0.90;;;19.70;28.70;;;;;;5025911;28;20052;-49
2023/02/26 03:53:09;;;;;;;3.50;0.95;;;19.70;28.70;;;;;;5047068;28;20401;-54
2023/02/26 03:55:49;;;;;;;2.80;1.02;;;19.70;28.60;;;;;;5044601;28;20025;-54
2023/02/26 03:58:38;;;;;;;3.20;0.90;;;19.70;28.60;;;;;;5048020;28;20044;-48
2023/02/26 04:01:56;;;;;;;1.90;1.10;;;19.60;28.60;;;;;;5032516;28;20391;-51
2023/02/26 04:04:34;;;;;;;2.38;0.90;;;19.60;28.60;;;;;;5037046;28;20112;-55
2023/02/26 04:07:01;;;;;;;2.88;1.05;;;19.60;28.60;;;;;;5042884;28;20069;-54
2023/02/26 04:09:27;;;;;;;2.13;0.70;;;19.60;28.60;;;;;;5043784;28;20044;-54
2023/02/26 04:11:56;;;;;;;3.10;0.80;;;19.60;28.50;;;;;;5047116;28;20095;-50
2023/02/26 04:14:21;;;;;;;2.35;1.05;;;19.60;28.50;;;;;;5043904;28;20163;-51
2023/02/26 04:16:47;;;;;;;1.27;0.50;;;19.60;28.50;;;;;;5042514;28;20155;-53
2023/02/26 04:19:13;;;;;;;1.98;0.73;;;19.60;28.50;;;;;;5045387;28;20028;-52
2023/02/26 04:21:40;;;;;;;2.50;0.70;;;19.60;28.50;;;;;;5045625;28;20108;-55
2023/02/26 04:24:07;;;;;;;2.92;0.90;;;19.60;28.50;;;;;;5042803;28;20179;-52
2023/02/26 04:26:34;;;;;;;1.95;0.73;;;19.60;28.50;;;;;;5049037;28;20048;-52
2023/02/26 04:29:00;;;;;;;1.63;0.80;;;19.60;28.50;;;;;;5030741;28;21673;-53
2023/02/26 04:31:26;;;;;;;2.05;0.90;;;19.60;28.50;;;;;;5045389;28;20027;-49
2023/02/26 04:33:52;;;;;;;2.05;0.82;;;19.50;28.50;;;;;;5049664;28;20132;-51
2023/02/26 04:36:18;;;;;;;2.53;0.70;;;19.60;28.50;;;;;;5052257;28;20464;-50
2023/02/26 04:38:44;;;;;;;1.67;0.52;;;19.60;28.50;;;;;;5050099;28;20356;-54
2023/02/26 04:41:10;;;;;;;1.05;0.70;;;19.60;28.50;;;;;;5050861;28;20028;-54
2023/02/26 04:43:36;;;;;;;2.33;0.80;;;19.50;28.40;;;;;;5028980;28;20075;-54
2023/02/26 04:46:22;;;;;;;1.55;0.70;;;19.50;28.60;;;;;;5042310;28;20037;-52
2023/02/26 04:48:48;;;;;;;2.45;1.10;;;19.50;28.60;;;;;;5049002;28;20025;-49
2023/02/26 04:51:15;;;;;;;1.15;0.55;;;19.50;28.60;;;;;;5050991;28;20063;-53
2023/02/26 04:53:42;;;;;;;2.20;0.93;;;19.50;28.50;;;;;;5049192;28;20029;-53
2023/02/26 04:56:08;;;;;;;2.40;0.80;;;19.50;28.50;;;;;;5047192;28;20079;-50
2023/02/26 04:58:34;;;;;;;2.88;0.90;;;19.50;28.60;;;;;;5052005;28;20032;-56
2023/02/26 05:01:06;;;;;;;1.98;0.63;;;19.50;28.60;;;;;;5051206;28;20107;-55
2023/02/26 05:03:32;;;;;;;1.45;0.70;;;19.50;28.60;;;;;;5048765;28;20421;-54
2023/02/26 05:05:57;;;;;;;1.02;0.40;;;19.50;28.60;;;;;;5051459;28;20063;-55
2023/02/26 05:08:23;;;;;;;2.42;0.80;;;19.50;28.60;;;;;;5049918;28;20044;-54
2023/02/26 05:10:51;;;;;;;2.80;0.90;;;19.50;28.50;;;;;;5050462;28;20464;-51
2023/02/26 05:13:17;;;;;;;1.17;0.70;;;19.50;28.50;;;;;;5050144;28;20392;-52
2023/02/26 05:15:43;;;;;;;1.67;0.60;;;19.50;28.50;;;;;;5050200;28;20040;-51
2023/02/26 05:18:10;;;;;;;1.52;0.57;;;19.50;28.50;;;;;;5046327;28;20025;-53
2023/02/26 05:20:36;;;;;;;2.35;0.60;;;19.50;28.40;;;;;;5046000;28;21578;-54
2023/02/26 05:23:03;;;;;;;1.75;0.60;;;19.50;28.40;;;;;;5051368;28;20025;-56
2023/02/26 05:25:29;;;;;;;1.02;0.52;;;19.50;28.40;;;;;;5050320;28;20047;-54
2023/02/26 05:27:56;;;;;;;2.00;0.70;;;19.40;28.30;;;;;;5050227;28;20475;-53
2023/02/26 05:30:22;;;;;;;1.58;0.50;;;19.40;28.30;;;;;;5048958;28;20071;-50
2023/02/26 05:32:48;;;;;;;1.08;0.60;;;19.40;28.30;;;;;;5047752;28;20037;-53
2023/02/26 05:35:14;;;;;;;1.67;0.40;;;19.40;28.30;;;;;;5046790;28;20037;-54
2023/02/26 05:37:40;;;;;;;1.80;0.60;;;19.40;28.30;;;;;;5050301;28;20060;-53
2023/02/26 05:40:09;;;;;;;1.55;0.60;;;19.40;28.30;;;;;;5048799;28;20062;-55
2023/02/26 05:42:36;;;;;;;2.85;0.80;;;19.40;28.30;;;;;;5051996;28;20033;-54
2023/02/26 05:45:03;;;;;;;1.08;0.70;;;19.40;28.30;;;;;;5048687;28;20034;-55
2023/02/26 05:47:29;;;;;;;1.58;0.60;;;19.40;28.30;;;;;;5051213;28;20025;-55
2023/02/26 05:49:55;;;;;;;1.02;0.50;;;19.40;28.30;;;;;;5050966;28;20171;-54
2023/02/26 05:52:20;;;;;;;2.88;0.70;;;19.40;28.20;;;;;;5051100;28;20052;-54
2023/02/26 05:54:46;;;;;;;1.80;0.55;;;19.40;28.20;;;;;;5049337;28;20440;-53
2023/02/26 05:57:12;;;;;;;1.33;0.60;;;19.40;28.20;;;;;;5048959;28;20025;-48
2023/02/26 05:59:38;;;;;;;1.30;0.47;;;19.30;28.20;;;;;;5048234;28;20099;-55
2023/02/26 06:02:04;;;;;;;0.98;0.40;;;19.30;28.20;;;;;;5049119;28;20021;-53
2023/02/26 06:04:29;;;;;;;2.80;0.60;;;19.30;28.20;;;;;;5048057;28;20499;-55
2023/02/26 06:06:55;;;;;;;1.10;0.40;;;19.30;28.20;;;;;;5048226;28;20021;-50
2023/02/26 06:09:21;;;;;;;1.13;0.50;;;19.30;28.20;;;;;;5047902;28;20037;-53
2023/02/26 06:11:47;;;;;;;1.02;0.43;;;19.30;28.20;;;;;;5047662;28;20474;-51
2023/02/26 06:14:13;;;;;;;1.48;0.68;;;19.30;28.20;;;;;;5050848;28;20033;-56
2023/02/26 06:16:38;;;;;;;1.50;0.47;;;19.30;28.20;;;;;;5050259;28;20353;-55
2023/02/26 06:19:05;;;;;;;2.28;0.70;;;19.30;28.20;;;;;;5049823;28;20185;-53
2023/02/26 06:21:30;;;;;;;1.25;0.50;;;19.30;28.20;;;;;;5046965;28;20521;-50
2023/02/26 06:23:56;;;;;;;2.55;0.50;;;19.30;28.20;;;;;;5049862;28;20060;-53
2023/02/26 06:26:22;;;;;;;1.27;0.30;;;19.30;28.20;;;;;;5048234;28;20039;-56
2023/02/26 06:28:48;;;;;;;1.58;0.73;;;19.30;28.10;;;;;;5047681;28;20440;-55
2023/02/26 06:31:14;;;;;;;0.57;0.30;;;19.30;28.10;;;;;;5050785;28;20079;-55
2023/02/26 06:33:39;;;;;;;3.33;0.63;;;19.30;28.20;;;;;;5047378;28;20086;-52
2023/02/26 06:36:07;;;;;;;1.83;0.60;;;19.30;28.20;;;;;;5051678;28;20063;-54
2023/02/26 06:38:33;;;;;;;2.45;0.40;;;19.30;28.20;;;;;;5048123;28;20086;-50
2023/02/26 06:40:59;;;;;;;1.55;0.70;;;19.30;28.20;;;;;;5050106;28;20021;-52
2023/02/26 06:43:25;;;;;;;0.55;0.40;;;19.30;28.10;;;;;;5050035;28;20334;-52
2023/02/26 06:45:50;;;;;;;1.85;0.60;;;19.20;28.10;;;;;;5047913;28;20357;-49
2023/02/26 06:48:16;;;;;;;0.90;0.55;;;19.20;28.10;;;;;;5049879;28;21691;-52
2023/02/26 06:50:42;;;;;;;1.38;0.50;;;19.20;28.10;;;;;;5049264;28;20029;-52
2023/02/26 06:53:08;;;;;;;1.23;0.47;;;19.20;28.10;;;;;;5049058;28;20017;-52
2023/02/26 06:55:34;;;;;;;1.23;0.38;;;19.20;28.10;;;;;;5047535;28;20340;-55
2023/02/26 06:57:59;;;;;;;1.15;0.40;;;19.20;28.10;;;;;;5051368;28;20453;-51
2023/02/26 07:00:25;;;;;;;2.28;0.40;;;19.20;28.10;;;;;;5047001;28;20804;-52
2023/02/26 07:02:52;;;;;;;1.65;0.50;;;19.20;28.10;;;;;;5049935;28;20566;-51
2023/02/26 07:05:18;;;;;;;1.33;0.40;;;19.20;28.00;;;;;;5047306;28;20128;-51
2023/02/26 07:07:44;;;;;;;1.33;0.55;;;19.20;28.10;;;;;;5048937;28;20079;-51
2023/02/26 07:10:11;;;;;;;1.75;0.57;;;19.20;28.10;;;;;;5046844;28;20036;-53
2023/02/26 07:12:37;;;;;;;1.65;0.40;;;19.20;28.60;;;;;;5052466;28;20052;-53
2023/02/26 07:15:05;;;;;;;2.35;0.50;;;19.20;28.00;;;;;;5048607;28;20041;-54
2023/02/26 07:17:32;;;;;;;1.42;0.60;;;19.20;28.00;;;;;;5047557;28;20456;-55
2023/02/26 07:19:59;;;;;;;1.00;0.50;;;19.20;28.00;;;;;;5047163;28;20039;-54
2023/02/26 07:22:25;;;;;;;1.02;0.43;;;19.20;28.10;;;;;;5048402;28;20021;-50
2023/02/26 07:24:51;;;;;;;0.80;0.50;;;19.20;28.00;;;;;;5047755;28;20090;-53
2023/02/26 07:27:17;;;;;;;0.80;0.30;;;19.20;28.00;;;;;;5049286;28;20028;-53
2023/02/26 07:29:42;;;;;;;1.08;0.40;;;19.20;28.00;;;;;;5049045;28;20029;-56
2023/02/26 07:32:08;;;;;;;1.65;0.60;;;19.20;28.00;;;;;;5043935;28;21435;-55
2023/02/26 07:34:34;;;;;;;1.17;0.40;;;19.20;28.00;;;;;;5049470;28;20059;-55
2023/02/26 07:37:00;;;;;;;1.52;0.60;;;19.20;28.00;;;;;;5049790;28;20044;-53
2023/02/26 07:39:26;;;;;;;0.85;0.40;;;19.20;28.00;;;;;;5048691;28;20035;-55
2023/02/26 07:41:53;;;;;;;1.02;0.40;;;19.20;28.00;;;;;;5040875;28;20094;-53
2023/02/26 07:44:20;;;;;;;2.28;0.55;;;19.20;28.10;;;;;;5039666;28;20029;-53
2023/02/26 07:46:46;;;;;;;1.00;0.40;;;19.20;28.10;;;;;;5035122;28;20338;-54
2023/02/26 07:49:12;;;;;;;1.42;0.47;;;19.20;28.10;;;;;;5039065;28;20033;-53
2023/02/26 07:51:39;;;;;;;1.23;0.45;;;19.20;28.10;;;;;;5037414;28;20112;-53
2023/02/26 07:54:05;;;;;;;0.77;0.30;;;19.20;28.10;;;;;;5033198;28;20051;-53
2023/02/26 07:56:31;;;;;;;1.52;0.55;;;19.20;28.10;;;;;;5050890;28;20029;-53
2023/02/26 07:58:57;;;;;;;0.50;0.30;;;19.20;28.10;;;;;;5039935;28;20357;-54
2023/02/26 08:01:22;;;;;;;1.50;0.60;;;19.20;28.10;;;;;;5035283;28;20041;-49
2023/02/26 08:03:48;;;;;;;1.48;0.57;;;19.20;28.10;;;;;;5046648;28;20025;-54
2023/02/26 08:06:14;;;;;;;2.03;0.50;;;19.20;28.10;;;;;;5043284;28;20043;-54
2023/02/26 08:08:40;;;;;;;2.55;0.70;;;19.20;28.00;;;;;;5047716;28;20061;-51
2023/02/26 08:11:06;;;;;;;2.22;0.75;;;19.10;28.00;;;;;;5047684;28;20099;-53
2023/02/26 08:13:32;;;;;;;1.45;0.60;;;19.10;27.90;;;;;;5045879;28;20041;-52
2023/02/26 08:15:58;;;;;;;1.73;0.55;;;19.10;28.00;;;;;;5045135;28;20120;-52
2023/02/26 08:18:24;;;;;;;2.38;0.88;;;19.10;28.00;;;;;;5046585;28;20128;-55
2023/02/26 08:20:51;;;;;;;1.50;0.80;;;19.10;28.10;;;;;;5047728;28;20029;-52
2023/02/26 08:23:17;;;;;;;2.85;1.10;;;19.10;28.10;;;;;;5040988;28;20060;-54
2023/02/26 08:25:44;;;;;;;1.83;1.10;;;19.20;28.10;;;;;;5043688;28;20412;-53
2023/02/26 08:28:11;;;;;;;2.65;1.10;;;19.10;28.00;;;;;;5041567;28;20029;-53
2023/02/26 08:30:43;;;;;;;4.50;1.70;;;19.20;28.10;;;;;;5043037;28;20033;-51
2023/02/26 08:33:10;;;;;;;2.72;1.65;;;19.10;28.30;;;;;;5036834;28;20425;-50
2023/02/26 08:35:39;;;;;;;3.10;1.90;;;19.20;28.60;;;;;;5035090;28;20361;-54
2023/02/26 08:38:06;;;;;;;4.93;2.08;;;19.20;28.60;;;;;;5059614;28;20118;-51
2023/02/26 08:40:31;;;;;;;2.92;2.13;;;19.20;28.60;;;;;;5053375;28;20029;-51
2023/02/26 08:42:57;;;;;;;3.83;2.17;;;19.20;28.60;;;;;;5044722;28;20040;-54
2023/02/26 08:45:23;;;;;;;5.63;2.40;;;19.30;28.60;;;;;;5046083;28;20060;-54
2023/02/26 08:47:50;;;;;;;3.30;1.88;;;19.30;28.60;;;;;;5044946;28;20357;-52
2023/02/26 08:50:16;;;;;;;2.75;1.88;;;19.40;28.60;;;;;;5050499;28;20036;-54
2023/02/26 08:52:42;;;;;;;2.60;1.52;;;19.50;28.60;;;;;;5042176;28;20025;-52
2023/02/26 08:55:08;;;;;;;3.40;2.00;;;19.50;28.50;;;;;;5048790;28;20467;-51
2023/02/26 08:57:34;;;;;;;3.90;2.33;;;19.60;28.50;;;;;;5054367;28;20408;-55
2023/02/26 09:00:00;;;;;;;4.03;2.05;;;19.60;28.40;;;;;;5048268;28;20058;-48
2023/02/26 09:02:26;;;;;;;4.78;2.03;;;19.70;28.50;;;;;;5048702;28;20112;-53
2023/02/26 09:04:52;;;;;;;3.78;2.50;;;19.80;28.50;;;;;;5042760;28;20120;-52
2023/02/26 09:07:17;;;;;;;5.07;2.58;;;19.90;28.40;;;;;;5038183;28;20078;-53
2023/02/26 09:09:43;;;;;;;4.75;2.80;;;20.00;28.40;;;;;;5037197;28;20721;-53
2023/02/26 09:12:09;;;;;;;4.53;2.92;;;20.00;28.30;;;;;;5049214;28;20037;-53
2023/02/26 09:14:35;;;;;;;4.60;3.38;;;20.10;28.30;;;;;;5050101;28;20041;-50
2023/02/26 09:17:01;;;;;;;6.60;3.95;;;20.20;28.30;;;;;;5045957;28;20371;-53
2023/02/26 09:19:27;;;;;;;6.82;3.95;;;20.20;28.30;;;;;;5047510;28;20035;-49
2023/02/26 09:21:52;;;;;;;6.82;4.50;;;20.30;28.30;;;;;;5043966;28;20075;-54
2023/02/26 09:24:18;;;;;;;6.90;4.72;;;20.40;28.30;;;;;;5036351;28;20025;-54
2023/02/26 09:26:44;;;;;;;5.47;4.07;;;20.40;28.30;;;;;;5039889;28;20032;-54
2023/02/26 09:29:10;;;;;;;5.72;4.35;;;20.50;28.30;;;;;;5041532;28;20081;-54
2023/02/26 09:31:36;;;;;;;7.30;4.50;;;20.50;28.20;;;;;;5049667;28;20353;-54
2023/02/26 09:34:02;;;;;;;6.15;4.35;;;20.60;28.30;;;;;;5044188;28;20345;-60
2023/02/26 09:36:29;;;;;;;8.85;4.32;;;20.60;28.30;;;;;;5049556;28;20032;-59
2023/02/26 09:38:55;;;;;;;6.03;4.00;;;20.70;28.40;;;;;;5054778;28;20044;-60
2023/02/26 09:41:30;;;;;;;4.90;3.33;;;20.70;28.80;;;;;;5054422;28;20060;-61
2023/02/26 09:44:16;;;;;;;5.30;2.88;;;20.80;28.40;;;;;;5052939;28;20037;-57
2023/02/26 09:46:55;;;;;;;3.92;2.55;;;20.80;28.30;;;;;;5049287;28;20025;-61
2023/02/26 09:49:33;;;;;;;3.60;2.50;;;20.80;28.20;;;;;;5044955;28;20120;-57
2023/02/26 09:52:28;;;;;;;8.52;5.53;;;20.70;27.70;;;;;;5038871;28;20041;-54
2023/02/26 09:55:14;;;;;;;9.88;6.95;;;20.70;27.70;;;;;;5055586;28;20057;-57
2023/02/26 09:57:45;;;;;;;12.65;9.13;;;20.80;27.90;;;;;;5052548;28;20051;-57
2023/02/26 10:00:17;;;;;;;11.20;8.38;;;20.80;28.20;;;;;;5052808;28;20029;-59
2023/02/26 10:03:21;;;;;;;11.55;8.32;;;20.80;28.40;;;;;;5050021;28;20104;-55
2023/02/26 10:05:50;;;;;;;15.35;9.98;;;20.80;28.60;;;;;;5032686;28;20048;-59
2023/02/26 10:08:18;;;;;;;14.82;9.57;;;20.80;28.70;;;;;;5047161;28;20029;-58
2023/02/26 10:10:51;;;;;;;19.63;13.20;;;20.80;29.00;;;;;;5053641;28;20048;-58
2023/02/26 10:13:32;;;;;;;20.13;13.90;;;20.80;29.70;;;;;;5050756;28;20041;-56
2023/02/26 10:16:04;;;;;;;22.33;14.93;;;20.90;31.10;;;;;;5051881;28;20056;-57
2023/02/26 10:18:37;;;;;;;22.58;14.45;;;20.90;32.40;;;;;;5050414;28;20112;-55
2023/02/26 10:21:07;;;;;;;22.92;15.20;;;21.00;33.90;;;;;;5052261;28;20020;-53
2023/02/26 10:24:08;;;;;;;23.65;15.90;;;21.00;35.60;;;;;;5052613;28;20032;-56
2023/02/26 10:26:40;;;;;;;30.35;17.25;;;21.00;37.10;;;;;;5034460;28;20072;-57
2023/02/26 10:29:19;;;;;;;33.50;19.08;;;21.10;38.50;;;;;;5051898;28;20072;-54
2023/02/26 10:32:05;;;;;;;33.25;19.88;;;21.10;39.60;;;;;;5051302;28;20392;-56
2023/02/26 10:34:43;;;;;;;30.80;20.30;;;21.20;40.20;;;;;;5052238;28;20037;-57
2023/02/26 10:37:28;;;;;;;38.15;22.92;;;21.20;40.80;;;;;;5053449;28;20064;-56
2023/02/26 10:40:10;;;;;;;31.83;21.23;;;21.20;41.70;;;;;;5052566;28;20040;-58
2023/02/26 10:42:56;;;;;;;30.50;21.50;;;21.20;42.20;;;;;;5053182;28;20087;-54
2023/02/26 10:46:15;;;;;;;32.88;22.42;;;21.30;42.20;;;;;;5052411;28;20036;-51
2023/02/26 10:49:18;;;;;;;35.00;22.10;;;21.30;41.90;;;;;;5057208;28;20099;-55
2023/02/26 10:51:45;;;;;;;31.85;21.75;;;21.40;41.10;;;;;;5051345;28;20037;-52
2023/02/26 10:54:34;;;;;;;29.42;20.70;;;21.30;40.90;;;;;;5045769;28;20606;-59
2023/02/26 10:57:00;;;;;;;30.40;22.00;;;21.40;39.80;;;;;;5044649;28;20120;-56
2023/02/26 10:59:26;;;;;;;27.52;19.35;;;21.40;38.60;;;;;;5050581;28;20033;-60
2023/02/26 11:01:53;;;;;;;10.48;6.55;;;21.40;37.20;;;;;;5048210;28;20035;-63
2023/02/26 11:04:22;;;;;;;7.90;4.38;;;21.30;34.30;;;;;;5066967;28;20317;-52
2023/02/26 11:06:53;;;;;;;12.27;7.82;;;21.10;31.50;;;;;;5072183;28;20127;-59
2023/02/26 11:09:26;;;;;;;19.25;14.63;;;21.00;31.00;;;;;;5046657;28;20024;-52
2023/02/26 11:11:55;;;;;;;27.13;19.27;;;20.90;31.90;;;;;;5046590;28;20053;-50
2023/02/26 11:14:24;;;;;;;27.35;19.55;;;20.90;32.60;;;;;;5041829;28;20072;-53
2023/02/26 11:16:54;;;;;;;25.30;18.92;;;21.00;32.90;;;;;;5042667;28;20370;-54
2023/02/26 11:19:27;;;;;;;29.58;21.50;;;21.00;32.90;;;;;;5046510;28;20021;-53
2023/02/26 11:21:54;;;;;;;25.77;19.50;;;21.00;32.90;;;;;;5047819;28;20075;-52
2023/02/26 11:24:35;;;;;;;30.00;20.17;;;21.00;32.80;;;;;;5053824;28;20457;-54
2023/02/26 11:27:03;;;;;;;25.88;19.50;;;21.00;32.80;;;;;;5050989;28;20025;-52
2023/02/26 11:29:42;;;;;;;27.92;19.63;;;21.10;32.90;;;;;;5044353;28;20047;-52
2023/02/26 11:32:28;;;;;;;25.45;18.63;;;21.10;32.70;;;;;;5033625;28;20022;-50
2023/02/26 11:34:54;;;;;;;29.08;21.27;;;21.10;32.60;;;;;;5034356;28;20029;-48
2023/02/26 11:37:26;;;;;;;28.50;21.30;;;21.10;32.70;;;;;;5043321;28;20029;-50
2023/02/26 11:39:57;;;;;;;30.05;21.48;;;21.10;32.80;;;;;;5032406;28;20029;-54
2023/02/26 11:42:25;;;;;;;29.48;20.88;;;21.20;32.70;;;;;;5041368;28;20043;-54
2023/02/26 11:44:51;;;;;;;29.38;20.77;;;21.20;32.60;;;;;;5046145;28;20106;-53
2023/02/26 11:47:26;;;;;;;29.98;22.63;;;21.20;32.60;;;;;;5050555;28;20021;-51
2023/02/26 11:49:54;;;;;;;30.05;22.35;;;21.20;32.60;;;;;;5044615;28;20029;-51
2023/02/26 11:52:39;;;;;;;28.88;21.80;;;21.20;32.60;;;;;;5043784;28;20123;-51
2023/02/26 11:55:21;;;;;;;31.25;22.67;;;21.20;32.50;;;;;;5049028;28;20040;-50
2023/02/26 11:57:55;;;;;;;30.73;23.23;;;21.20;32.50;;;;;;5040204;28;20029;-53
2023/02/26 12:00:34;;;;;;;31.35;23.60;;;21.30;32.50;;;;;;5043950;28;20040;-55
2023/02/26 12:03:03;;;;;;;33.20;24.65;;;21.30;32.60;;;;;;5044869;28;20025;-54
2023/02/26 12:05:30;;;;;;;34.03;23.92;;;21.30;32.50;;;;;;5043029;28;20048;-50
2023/02/26 12:07:58;;;;;;;33.00;23.65;;;21.30;32.40;;;;;;5047884;28;20021;-54
2023/02/26 12:10:42;;;;;;;35.67;25.23;;;21.30;32.30;;;;;;5043293;28;20043;-54
2023/02/26 12:13:26;;;;;;;33.50;25.67;;;21.30;32.30;;;;;;5041865;28;20067;-54
2023/02/26 12:16:20;;;;;;;36.23;25.33;;;21.30;32.30;;;;;;5033925;28;20361;-53
2023/02/26 12:19:12;;;;;;;32.90;25.05;;;21.40;32.30;;;;;;5050104;28;20033;-48
2023/02/26 12:22:04;;;;;;;33.50;24.50;;;21.40;32.20;;;;;;5044284;28;20033;-52
2023/02/26 12:24:40;;;;;;;34.75;26.25;;;21.40;32.10;;;;;;5043023;28;20029;-56
2023/02/26 12:27:09;;;;;;;32.92;24.73;;;21.40;32.10;;;;;;5043701;28;20120;-51
2023/02/26 12:29:53;;;;;;;35.80;26.95;;;21.40;32.00;;;;;;5051510;28;20041;-49
2023/02/26 12:32:34;;;;;;;36.03;26.60;;;21.40;32.00;;;;;;5054176;28;20063;-53
2023/02/26 12:35:05;;;;;;;34.72;26.08;;;21.40;31.90;;;;;;5055064;28;20303;-52
2023/02/26 12:37:39;;;;;;;34.50;26.48;;;21.40;31.80;;;;;;5054821;28;20033;-51
2023/02/26 12:40:16;;;;;;;35.60;26.80;;;21.40;31.80;;;;;;5051470;28;20360;-54
2023/02/26 12:43:07;;;;;;;34.17;26.20;;;21.50;31.70;;;;;;5041266;28;20030;-58
2023/02/26 12:46:01;;;;;;;35.55;27.52;;;21.50;31.70;;;;;;5040762;28;20041;-55
2023/02/26 12:48:47;;;;;;;35.42;26.23;;;21.50;31.80;;;;;;5042686;28;20052;-56
2023/02/26 12:51:22;;;;;;;32.97;25.10;;;21.50;31.90;;;;;;5041549;28;20021;-52
2023/02/26 12:54:09;;;;;;;32.95;25.42;;;21.50;31.70;;;;;;5044046;28;20456;-53
2023/02/26 12:57:05;;;;;;;37.67;26.75;;;21.60;31.50;;;;;;5039151;28;20052;-49
2023/02/26 12:59:31;;;;;;;36.58;27.05;;;21.70;31.40;;;;;;5043584;28;20120;-53
2023/02/26 13:02:24;;;;;;;36.15;27.02;;;21.70;31.80;;;;;;5036581;28;20105;-54
2023/02/26 13:05:26;;;;;;;42.28;28.42;;;21.80;31.10;;;;;;5050065;28;20591;-51
2023/02/26 13:08:00;;;;;;;40.22;29.48;;;21.80;31.00;;;;;;5043825;28;20476;-47